createdAt,value
2022-08-26T00:04:28.608Z,16.92
2022-08-26T00:09:26.666Z,18.70
2022-08-26T00:14:29.549Z,15.48
2022-08-26T00:19:33.819Z,14.70
2022-08-26T00:24:32.136Z,16.10
2022-08-26T00:29:34.787Z,17.90
2022-08-26T00:34:32.696Z,15.10
2022-08-26T00:39:29.843Z,17.98
2022-08-26T00:44:27.833Z,16.42
2022-08-26T00:49:39.156Z,17.15
2022-08-26T00:54:46.209Z,21.25
2022-08-26T00:59:50.687Z,15.80
2022-08-26T01:04:55.610Z,20.00
2022-08-26T01:09:54.054Z,12.52
2022-08-26T01:14:52.396Z,14.77
2022-08-26T01:19:53.458Z,14.70
2022-08-26T01:24:51.856Z,17.55
2022-08-26T01:29:53.305Z,17.00
2022-08-26T01:34:50.725Z,12.52
2022-08-26T01:39:51.647Z,13.02
2022-08-26T01:44:51.496Z,11.65
2022-08-26T01:49:51.850Z,20.58
2022-08-26T01:54:53.368Z,14.57
2022-08-26T01:59:53.099Z,17.88
2022-08-26T02:04:57.081Z,17.90
2022-08-26T02:09:54.996Z,15.65
2022-08-26T02:14:56.050Z,12.63
2022-08-26T02:19:58.600Z,16.38
2022-08-26T02:25:00.231Z,10.73
2022-08-26T02:30:03.021Z,13.48
2022-08-26T02:35:31.847Z,12.75
2022-08-26T02:40:45.266Z,14.70
2022-08-26T02:45:45.364Z,11.75
2022-08-26T02:50:44.164Z,12.20
2022-08-26T02:55:42.323Z,13.20
2022-08-26T03:00:53.470Z,12.77
2022-08-26T03:05:56.773Z,14.07
2022-08-26T03:10:56.075Z,13.68
2022-08-26T03:15:53.130Z,11.57
2022-08-26T03:20:50.351Z,15.60
2022-08-26T03:25:49.873Z,13.27
2022-08-26T03:30:48.938Z,13.32
2022-08-26T03:35:48.019Z,12.10
2022-08-26T03:40:48.080Z,17.40
2022-08-26T03:45:45.118Z,10.18
2022-08-26T03:50:44.009Z,15.88
2022-08-26T03:55:41.895Z,11.25
2022-08-26T04:00:40.314Z,19.02
2022-08-26T04:05:39.969Z,16.55
2022-08-26T04:11:03.807Z,13.38
2022-08-26T04:16:05.307Z,22.45
2022-08-26T04:21:19.599Z,15.27
2022-08-26T04:26:42.739Z,8.73
2022-08-26T04:31:40.933Z,19.90
2022-08-26T04:36:39.935Z,12.25
2022-08-26T04:41:44.979Z,15.35
2022-08-26T04:46:53.339Z,14.43
2022-08-26T04:51:56.142Z,8.73
2022-08-26T04:56:58.852Z,14.30
2022-08-26T05:01:56.739Z,20.13
2022-08-26T05:07:06.319Z,9.38
2022-08-26T05:12:15.257Z,9.13
2022-08-26T05:17:15.075Z,9.07
2022-08-26T05:22:13.161Z,11.20
2022-08-26T05:27:11.999Z,12.10
2022-08-26T05:32:20.419Z,16.52
2022-08-26T05:37:17.786Z,48.42
2022-08-26T05:42:19.155Z,16.98
2022-08-26T05:53:04.772Z,11.75
2022-08-26T05:58:21.563Z,16.70
2022-08-26T06:03:47.248Z,15.85
2022-08-26T06:08:56.903Z,16.23
2022-08-26T06:14:03.835Z,16.42
2022-08-26T06:19:15.408Z,15.55
2022-08-26T06:24:34.701Z,17.80
2022-08-26T06:29:36.065Z,11.90
2022-08-26T06:34:33.313Z,19.05
2022-08-26T06:39:41.295Z,14.90
2022-08-26T06:44:41.032Z,12.55
2022-08-26T06:49:44.206Z,13.40
2022-08-26T06:55:01.862Z,24.45
2022-08-26T07:00:01.346Z,18.40
2022-08-26T07:05:14.590Z,17.77
2022-08-26T07:10:19.536Z,12.23
2022-08-26T07:15:17.818Z,9.85
2022-08-26T07:20:24.216Z,13.63
2022-08-26T07:25:42.273Z,9.40
2022-08-26T07:30:58.240Z,15.75
2022-08-26T07:35:55.534Z,10.77
2022-08-26T07:41:23.810Z,12.13
2022-08-26T07:46:53.191Z,16.48
2022-08-26T07:51:53.748Z,10.43
2022-08-26T07:56:51.184Z,12.10
2022-08-26T08:01:50.001Z,10.68
2022-08-26T08:06:47.073Z,11.88
2022-08-26T08:11:46.080Z,10.30
2022-08-26T08:16:59.012Z,15.55
2022-08-26T08:21:56.570Z,10.18
2022-08-26T08:26:53.583Z,17.90
2022-08-26T08:32:11.600Z,14.55
2022-08-26T08:37:23.162Z,14.20
2022-08-26T08:43:00.742Z,11.10
2022-08-26T08:48:01.195Z,18.63
2022-08-26T08:53:13.163Z,14.73
2022-08-26T08:58:23.654Z,17.60
2022-08-26T09:03:36.647Z,16.10
2022-08-26T09:08:42.078Z,13.52
2022-08-26T09:13:46.471Z,12.32
2022-08-26T09:19:10.575Z,9.88
2022-08-26T09:24:18.749Z,12.70
2022-08-26T09:29:24.031Z,8.73
2022-08-26T09:34:23.866Z,12.45
2022-08-26T09:39:47.163Z,11.10
2022-08-26T09:45:04.544Z,11.13
2022-08-26T09:50:38.556Z,12.88
2022-08-26T09:55:41.849Z,10.55
2022-08-26T10:01:13.475Z,18.08
2022-08-26T10:06:32.266Z,8.63
2022-08-26T10:11:47.651Z,11.18
2022-08-26T10:16:53.060Z,14.25
2022-08-26T10:21:56.235Z,10.27
2022-08-26T10:27:02.536Z,10.07
2022-08-26T10:32:18.777Z,6.82
2022-08-26T10:37:36.661Z,13.63
2022-08-26T10:42:37.608Z,9.55
2022-08-26T10:47:43.094Z,11.63
2022-08-26T10:52:55.791Z,7.38
2022-08-26T10:58:04.993Z,7.13
2022-08-26T11:03:10.689Z,7.63
2022-08-26T11:08:33.811Z,10.27
2022-08-26T11:14:29.250Z,11.15
2022-08-26T11:20:13.768Z,10.70
2022-08-26T11:25:38.978Z,9.38
2022-08-26T11:30:52.192Z,10.82
2022-08-26T11:35:55.513Z,8.60
2022-08-26T11:41:29.308Z,9.30
2022-08-26T11:46:47.779Z,8.82
2022-08-26T11:51:48.644Z,10.43
2022-08-26T11:57:09.532Z,13.50
2022-08-26T12:02:27.431Z,11.77
2022-08-26T12:07:27.838Z,16.27
2022-08-26T12:12:34.782Z,18.58
2022-08-26T12:17:32.374Z,8.65
2022-08-26T12:22:43.509Z,12.65
2022-08-26T12:27:50.621Z,7.25
2022-08-26T12:32:57.959Z,13.98
2022-08-26T12:37:57.622Z,6.50
2022-08-26T12:42:56.559Z,8.00
2022-08-26T12:47:56.719Z,10.18
2022-08-26T12:52:58.555Z,8.38
2022-08-26T12:58:25.027Z,11.93
2022-08-26T13:04:02.453Z,10.82
2022-08-26T13:09:06.473Z,10.23
2022-08-26T13:14:07.397Z,8.63
2022-08-26T13:20:02.688Z,13.30
2022-08-26T13:25:27.971Z,13.10
2022-08-26T13:30:29.422Z,15.70
2022-08-26T13:35:27.613Z,13.55
2022-08-26T13:40:34.820Z,16.52
2022-08-26T13:45:48.914Z,13.15
2022-08-26T13:50:47.531Z,12.27
2022-08-26T13:55:45.162Z,10.30
2022-08-26T14:00:51.020Z,16.98
2022-08-26T14:05:48.507Z,14.57
2022-08-26T14:10:45.737Z,18.77
2022-08-26T14:15:53.460Z,17.17
2022-08-26T14:21:32.445Z,16.15
2022-08-26T14:26:43.733Z,12.25
2022-08-26T14:31:42.142Z,16.58
2022-08-26T14:36:43.993Z,12.95
2022-08-26T14:41:56.429Z,16.40
2022-08-26T14:46:54.730Z,13.48
2022-08-26T14:51:51.886Z,16.77
2022-08-26T14:56:53.966Z,19.88
2022-08-26T15:07:09.803Z,16.17
2022-08-26T15:12:25.315Z,25.15
2022-08-26T15:17:37.661Z,17.05
2022-08-26T15:22:35.602Z,22.67
2022-08-26T15:32:58.770Z,14.23
2022-08-26T15:38:10.182Z,19.70
2022-08-26T15:43:25.596Z,22.92
2022-08-26T15:48:27.998Z,19.63
2022-08-26T15:53:27.620Z,18.08
2022-08-26T15:58:25.863Z,15.57
2022-08-26T16:03:59.093Z,20.45
2022-08-26T16:09:21.113Z,27.85
2022-08-26T16:14:20.346Z,25.42
2022-08-26T16:19:18.117Z,18.80
2022-08-26T16:24:15.865Z,23.98
2022-08-26T16:29:30.009Z,21.27
2022-08-26T16:34:56.629Z,19.20
2022-08-26T16:40:10.274Z,30.45
2022-08-26T16:45:11.526Z,24.02
2022-08-26T16:50:36.567Z,21.40
2022-08-26T16:56:05.277Z,22.15
2022-08-26T17:01:21.575Z,19.38
2022-08-26T17:06:22.133Z,14.35
2022-08-26T17:11:30.059Z,16.63
2022-08-26T17:16:27.611Z,30.00
2022-08-26T17:21:28.875Z,16.92
2022-08-26T17:26:26.220Z,21.10
2022-08-26T17:31:34.738Z,30.58
2022-08-26T17:42:31.978Z,22.40
2022-08-26T17:47:56.760Z,22.98
2022-08-26T17:52:59.135Z,25.00
2022-08-26T17:57:56.268Z,25.40
2022-08-26T18:03:01.934Z,34.30
2022-08-26T18:08:26.856Z,27.77
2022-08-26T18:13:47.341Z,25.88
2022-08-26T18:18:45.965Z,28.63
2022-08-26T18:23:46.871Z,30.38
2022-08-26T18:28:47.260Z,21.33
2022-08-26T18:33:44.729Z,25.30
2022-08-26T18:38:42.829Z,25.75
2022-08-26T18:43:42.769Z,24.27
2022-08-26T18:48:41.032Z,23.70
2022-08-26T18:53:38.189Z,17.60
2022-08-26T18:58:35.198Z,17.75
2022-08-26T19:03:35.302Z,26.33
2022-08-26T19:08:36.804Z,22.60
2022-08-26T19:18:58.431Z,22.10
2022-08-26T19:23:58.108Z,21.80
2022-08-26T19:29:00.590Z,23.23
2022-08-26T19:34:04.690Z,21.23
2022-08-26T19:39:05.605Z,24.30
2022-08-26T19:44:11.320Z,26.02
2022-08-26T19:49:09.499Z,20.05
2022-08-26T19:54:06.679Z,22.77
2022-08-26T19:59:03.800Z,21.08
2022-08-26T20:04:01.016Z,24.35
2022-08-26T20:08:58.877Z,22.60
2022-08-26T20:13:56.666Z,25.05
2022-08-26T20:19:12.477Z,23.55
2022-08-26T20:24:13.369Z,17.42
2022-08-26T20:29:12.326Z,23.63
2022-08-26T20:34:09.899Z,20.85
2022-08-26T20:39:07.531Z,25.65
2022-08-26T20:44:06.284Z,26.30
2022-08-26T20:49:06.047Z,21.63
2022-08-26T20:54:05.931Z,30.45
2022-08-26T20:59:04.384Z,23.40
2022-08-26T21:04:04.264Z,20.60
2022-08-26T21:09:08.632Z,33.42
2022-08-26T21:19:17.621Z,21.08
2022-08-26T21:24:14.691Z,17.13
2022-08-26T21:29:14.743Z,28.42
2022-08-26T21:34:11.893Z,29.92
2022-08-26T21:39:11.997Z,12.88
2022-08-26T21:44:11.085Z,21.88
2022-08-26T21:49:12.418Z,18.70
2022-08-26T21:54:12.238Z,21.55
2022-08-26T21:59:10.337Z,24.92
2022-08-26T22:04:09.275Z,22.98
2022-08-26T22:09:06.271Z,34.80
2022-08-26T22:14:07.242Z,21.95
2022-08-26T22:19:04.360Z,30.73
2022-08-26T22:24:04.181Z,22.05
2022-08-26T22:29:03.248Z,29.73
2022-08-26T22:34:01.219Z,26.88
2022-08-26T22:38:58.640Z,27.33
2022-08-26T22:43:55.805Z,22.15
2022-08-26T22:48:54.105Z,26.70
2022-08-26T22:53:52.000Z,29.00
2022-08-26T22:58:49.148Z,25.92
2022-08-26T23:03:46.461Z,22.50
2022-08-26T23:08:45.747Z,21.55
2022-08-26T23:13:43.769Z,22.45
2022-08-26T23:18:41.916Z,24.52
2022-08-26T23:23:38.917Z,30.50
2022-08-26T23:28:36.014Z,28.83
2022-08-26T23:33:52.253Z,31.80
2022-08-26T23:38:52.601Z,29.13
2022-08-26T23:43:50.992Z,46.00
2022-08-26T23:48:48.873Z,28.58
2022-08-26T23:53:45.898Z,44.60
2022-08-26T23:58:43.221Z,30.55
